Vista Grove, Georgia
Current Conditions -  °F | °C
As of 5:53 AM on Wednesday 22 Oct 2014 (Local Time) from KPDK Reporting Station
Clear Clear  
Wind Chill: 44°   Ceiling: Unl
Heat Index: 49°   Visibility: 10mi
Dew Point: 37°   Wind: 13mph
Humidity: 64%   Direction: 330°NNW
Pressure: 30.03"   Gusts: 22mph
Location:  33.8123°N, 84.2845°W
Report Text: KPDK 220953Z AUTO 33011G19KT 10SM CLR 09/03 A3003 RMK AO2 SLP165 T00940028
Loading
Personal Weather Stations






























Interactive Weather Map
Tropical Storm Tracking
New forecast layout! Learn more

10-Day Weather Forecast

Advertisements
Track Severe Weather on mobile